Time;durP1;ratioP1;P1;durP2;ratioP2;P2;SDS_P1;SDS_P2;PMS_P1;PMS_P2;Temp;Humidity;BMP_temperature;BMP_pressure;BME280_temperature;BME280_humidity;BME280_pressure;Samples;Min_cycle;Max_cycle;Signal;HPM_P1;HPM_P2
2024/03/21 00:01:22;;;;;;;32.50;20.13;;;;;;;;;;5019265;28;20441;-76
2024/03/21 00:03:48;;;;;;;33.58;19.88;;;;;;;;;;4996258;28;20464;-75
2024/03/21 00:06:14;;;;;;;29.10;19.17;;;;;;;;;;5011627;28;20045;-76
2024/03/21 00:08:40;;;;;;;31.95;18.90;;;;;;;;;;5026983;28;20737;-76
2024/03/21 00:11:06;;;;;;;27.17;18.95;;;;;;;;;;5029799;28;20053;-75
2024/03/21 00:13:32;;;;;;;27.02;18.60;;;;;;;;;;5025576;28;20052;-76
2024/03/21 00:15:57;;;;;;;30.92;19.05;;;;;;;;;;5027076;28;20148;-75
2024/03/21 00:18:23;;;;;;;26.83;18.45;;;;;;;;;;5009222;28;20057;-76
2024/03/21 00:20:49;;;;;;;29.77;19.77;;;;;;;;;;5021612;28;20951;-76
2024/03/21 00:23:14;;;;;;;37.17;20.08;;;;;;;;;;5021673;28;20056;-75
2024/03/21 00:25:40;;;;;;;31.23;18.80;;;;;;;;;;5028663;28;20064;-76
2024/03/21 00:28:05;;;;;;;32.33;20.92;;;;;;;;;;4994949;28;20064;-76
2024/03/21 00:30:31;;;;;;;30.90;18.45;;;;;;;;;;5021152;28;20048;-76
2024/03/21 00:32:56;;;;;;;35.03;20.30;;;;;;;;;;5031096;28;20044;-75
2024/03/21 00:35:22;;;;;;;30.55;18.88;;;;;;;;;;5007675;28;20053;-76
2024/03/21 00:37:47;;;;;;;34.00;19.98;;;;;;;;;;5011524;28;20041;-75
2024/03/21 00:40:12;;;;;;;34.00;20.02;;;;;;;;;;5029769;28;20048;-76
2024/03/21 00:42:42;;;;;;;35.28;20.38;;;;;;;;;;5025194;28;20084;-76
2024/03/21 00:45:08;;;;;;;38.95;22.92;;;;;;;;;;5016421;28;20049;-76
2024/03/21 00:47:34;;;;;;;33.08;20.70;;;;;;;;;;5021643;28;20061;-75
2024/03/21 00:49:59;;;;;;;32.42;20.13;;;;;;;;;;5020518;28;20485;-76
2024/03/21 00:52:24;;;;;;;34.92;21.00;;;;;;;;;;5004073;28;20639;-76
2024/03/21 00:54:50;;;;;;;35.38;21.75;;;;;;;;;;5027106;28;20052;-75
2024/03/21 00:57:16;;;;;;;31.75;20.63;;;;;;;;;;5028755;28;20102;-75
2024/03/21 00:59:46;;;;;;;36.08;20.58;;;;;;;;;;5024161;28;20060;-75
2024/03/21 01:02:13;;;;;;;35.70;21.23;;;;;;;;;;5038155;28;20178;-76
2024/03/21 01:04:39;;;;;;;35.58;22.17;;;;;;;;;;5019991;28;20091;-76
2024/03/21 01:07:04;;;;;;;36.83;21.92;;;;;;;;;;5025727;28;20053;-76
2024/03/21 01:09:30;;;;;;;32.88;21.67;;;;;;;;;;5018438;28;20038;-76
2024/03/21 01:11:58;;;;;;;33.70;21.23;;;;;;;;;;5024184;28;20485;-76
2024/03/21 01:14:23;;;;;;;37.17;20.88;;;;;;;;;;5029731;28;20108;-76
2024/03/21 01:16:49;;;;;;;35.30;21.77;;;;;;;;;;5019759;28;20858;-76
2024/03/21 01:19:14;;;;;;;36.55;22.52;;;;;;;;;;5026908;28;20040;-76
2024/03/21 01:21:39;;;;;;;37.67;22.98;;;;;;;;;;5028121;28;20061;-76
2024/03/21 01:24:05;;;;;;;36.25;21.73;;;;;;;;;;5017278;28;20057;-76
2024/03/21 01:26:30;;;;;;;36.53;21.98;;;;;;;;;;5022156;28;20049;-76
2024/03/21 01:28:56;;;;;;;35.65;21.10;;;;;;;;;;5016349;28;20053;-76
2024/03/21 01:31:22;;;;;;;38.22;21.42;;;;;;;;;;5026001;28;20045;-76
2024/03/21 01:33:48;;;;;;;37.25;22.85;;;;;;;;;;5007727;28;20110;-76
2024/03/21 01:36:14;;;;;;;38.25;22.58;;;;;;;;;;5010525;28;20049;-76
2024/03/21 01:38:39;;;;;;;32.55;20.67;;;;;;;;;;5018188;28;20072;-76
2024/03/21 01:41:06;;;;;;;34.05;22.15;;;;;;;;;;5021159;28;20056;-76
2024/03/21 01:43:32;;;;;;;34.15;21.33;;;;;;;;;;5022391;28;20049;-76
2024/03/21 01:46:09;;;;;;;33.55;21.10;;;;;;;;;;5000605;28;20569;-75
2024/03/21 01:48:38;;;;;;;32.35;20.33;;;;;;;;;;5034507;28;20064;-76
2024/03/21 01:51:04;;;;;;;33.88;20.08;;;;;;;;;;5031419;28;20052;-76
2024/03/21 01:53:31;;;;;;;33.15;22.80;;;;;;;;;;5021506;28;20057;-75
2024/03/21 01:55:59;;;;;;;33.47;21.35;;;;;;;;;;5008993;28;20057;-76
2024/03/21 01:58:24;;;;;;;33.85;21.10;;;;;;;;;;5013560;28;20919;-76
2024/03/21 02:00:49;;;;;;;32.75;20.40;;;;;;;;;;5014013;28;20080;-76
2024/03/21 02:03:15;;;;;;;35.45;21.90;;;;;;;;;;5009489;28;20041;-76
2024/03/21 02:05:41;;;;;;;39.53;22.20;;;;;;;;;;5040363;28;20057;-76
2024/03/21 02:08:08;;;;;;;34.38;20.80;;;;;;;;;;5009752;28;20444;-75
2024/03/21 02:10:35;;;;;;;35.05;21.38;;;;;;;;;;5015422;28;20046;-76
2024/03/21 02:13:01;;;;;;;34.80;22.05;;;;;;;;;;5004571;28;20049;-76
2024/03/21 02:15:27;;;;;;;37.47;23.58;;;;;;;;;;5013476;28;20444;-76
2024/03/21 02:17:52;;;;;;;37.38;22.77;;;;;;;;;;5026377;28;20049;-75
2024/03/21 02:20:17;;;;;;;34.13;20.88;;;;;;;;;;5028101;28;20060;-75
2024/03/21 02:22:43;;;;;;;36.78;23.70;;;;;;;;;;5024227;28;20070;-76
2024/03/21 02:25:09;;;;;;;35.47;21.95;;;;;;;;;;5029326;28;20489;-76
2024/03/21 02:27:39;;;;;;;35.65;22.23;;;;;;;;;;5021110;28;20112;-76
2024/03/21 02:30:06;;;;;;;36.08;21.75;;;;;;;;;;5016961;28;20061;-75
2024/03/21 02:32:32;;;;;;;31.88;21.88;;;;;;;;;;5025500;28;20056;-75
2024/03/21 02:34:57;;;;;;;33.42;23.17;;;;;;;;;;5016983;28;20593;-75
2024/03/21 02:37:23;;;;;;;36.03;23.35;;;;;;;;;;5029972;28;20052;-76
2024/03/21 02:39:51;;;;;;;41.60;24.08;;;;;;;;;;5023178;28;20049;-75
2024/03/21 02:42:20;;;;;;;32.83;22.55;;;;;;;;;;5024315;28;20393;-75
2024/03/21 02:44:46;;;;;;;39.85;22.30;;;;;;;;;;5004074;28;20053;-76
2024/03/21 02:47:12;;;;;;;36.55;22.13;;;;;;;;;;5014288;28;20069;-75
2024/03/21 02:49:37;;;;;;;33.33;21.88;;;;;;;;;;5029756;28;20187;-76
2024/03/21 02:52:03;;;;;;;35.47;22.92;;;;;;;;;;5022762;28;20063;-75
2024/03/21 02:54:31;;;;;;;35.75;23.35;;;;;;;;;;5021881;28;20060;-76
2024/03/21 02:56:57;;;;;;;30.95;21.33;;;;;;;;;;5022792;28;20103;-76
2024/03/21 02:59:22;;;;;;;30.42;21.02;;;;;;;;;;5006452;28;20045;-75
2024/03/21 03:01:48;;;;;;;32.70;21.50;;;;;;;;;;5015825;28;20777;-76
2024/03/21 03:04:13;;;;;;;29.65;19.88;;;;;;;;;;5026187;28;20095;-76
2024/03/21 03:06:39;;;;;;;32.38;20.50;;;;;;;;;;5038290;28;20106;-75
2024/03/21 03:09:04;;;;;;;35.90;20.88;;;;;;;;;;5023950;28;20536;-75
2024/03/21 03:11:30;;;;;;;30.50;20.10;;;;;;;;;;5019358;28;20128;-75
2024/03/21 03:13:56;;;;;;;30.02;17.92;;;;;;;;;;5017001;28;20053;-75
2024/03/21 03:16:21;;;;;;;31.35;18.83;;;;;;;;;;4996356;28;20068;-75
2024/03/21 03:18:47;;;;;;;26.25;19.38;;;;;;;;;;5052462;28;20056;-75
2024/03/21 03:21:12;;;;;;;32.95;19.83;;;;;;;;;;5031050;28;20056;-75
2024/03/21 03:23:37;;;;;;;30.33;19.10;;;;;;;;;;4997810;28;20056;-76
2024/03/21 03:26:03;;;;;;;29.73;19.52;;;;;;;;;;5019455;28;20052;-76
2024/03/21 03:28:28;;;;;;;29.88;19.20;;;;;;;;;;5027601;28;20137;-75
2024/03/21 03:30:54;;;;;;;29.90;19.08;;;;;;;;;;5025786;28;20057;-76
2024/03/21 03:36:04;;;;;;;31.70;20.58;;;;;;;;;;5023106;28;20424;-75
2024/03/21 03:38:29;;;;;;;31.83;19.75;;;;;;;;;;5022872;28;20068;-76
2024/03/21 03:40:54;;;;;;;27.92;19.25;;;;;;;;;;5028330;28;20094;-75
2024/03/21 03:43:20;;;;;;;29.10;19.52;;;;;;;;;;5035175;28;20081;-76
2024/03/21 03:45:45;;;;;;;28.85;19.30;;;;;;;;;;5031368;28;20051;-75
2024/03/21 03:48:11;;;;;;;28.63;18.85;;;;;;;;;;5025738;28;20064;-75
2024/03/21 03:50:36;;;;;;;29.77;17.77;;;;;;;;;;5031160;28;20167;-75
2024/03/21 03:53:02;;;;;;;30.73;20.20;;;;;;;;;;5011674;28;20688;-75
2024/03/21 03:55:27;;;;;;;34.47;20.45;;;;;;;;;;4995084;28;20053;-75
2024/03/21 03:57:52;;;;;;;28.30;19.15;;;;;;;;;;5020270;28;20439;-75
2024/03/21 04:00:18;;;;;;;33.22;21.23;;;;;;;;;;5024346;28;20061;-75
2024/03/21 04:02:44;;;;;;;38.30;22.75;;;;;;;;;;5024734;28;20093;-76
2024/03/21 04:05:10;;;;;;;32.58;21.40;;;;;;;;;;5024564;28;20052;-75
2024/03/21 04:07:36;;;;;;;37.15;23.42;;;;;;;;;;5008220;28;20056;-76
2024/03/21 04:10:02;;;;;;;35.38;21.20;;;;;;;;;;5036088;28;20057;-76
2024/03/21 04:12:27;;;;;;;29.70;20.20;;;;;;;;;;5011929;28;20061;-76
2024/03/21 04:14:53;;;;;;;30.58;20.25;;;;;;;;;;5030012;28;20404;-75
2024/03/21 04:17:19;;;;;;;30.25;20.73;;;;;;;;;;5025230;28;20917;-76
2024/03/21 04:19:44;;;;;;;34.33;21.75;;;;;;;;;;5008461;28;20065;-75
2024/03/21 04:22:10;;;;;;;31.45;21.23;;;;;;;;;;5010869;28;20053;-75
2024/03/21 04:24:41;;;;;;;30.83;19.92;;;;;;;;;;5013363;28;20125;-75
2024/03/21 04:27:07;;;;;;;28.27;17.85;;;;;;;;;;5030769;28;20045;-75
2024/03/21 04:29:32;;;;;;;24.98;16.45;;;;;;;;;;5006004;28;20050;-75
2024/03/21 04:31:58;;;;;;;24.00;16.88;;;;;;;;;;5021012;28;20037;-76
2024/03/21 04:34:24;;;;;;;22.67;16.55;;;;;;;;;;5014422;28;20045;-76
2024/03/21 04:36:50;;;;;;;22.25;15.75;;;;;;;;;;5016748;28;20098;-75
2024/03/21 04:39:15;;;;;;;22.17;14.25;;;;;;;;;;5033616;28;20416;-76
2024/03/21 04:41:41;;;;;;;20.65;14.02;;;;;;;;;;5009284;28;20046;-76
2024/03/21 04:44:06;;;;;;;18.27;12.52;;;;;;;;;;5029372;28;20041;-76
2024/03/21 04:46:32;;;;;;;17.17;13.02;;;;;;;;;;5026275;28;20051;-76
2024/03/21 04:48:57;;;;;;;16.88;11.48;;;;;;;;;;5006382;28;20803;-75
2024/03/21 04:51:22;;;;;;;16.52;11.68;;;;;;;;;;5035518;28;20052;-76
2024/03/21 04:53:48;;;;;;;17.27;11.13;;;;;;;;;;5025956;28;20041;-76
2024/03/21 04:56:13;;;;;;;13.38;9.48;;;;;;;;;;5030982;28;20063;-76
2024/03/21 04:58:39;;;;;;;15.27;10.13;;;;;;;;;;5022246;28;20706;-76
2024/03/21 05:01:07;;;;;;;15.07;9.30;;;;;;;;;;5021763;28;20056;-76
2024/03/21 05:03:33;;;;;;;;;;;;;;;;;;5008820;28;20053;-76
2024/03/21 05:05:58;;;;;;;11.65;8.07;;;;;;;;;;5014638;28;19951;-76
2024/03/21 05:08:24;;;;;;;11.63;8.10;;;;;;;;;;5030723;28;20053;-76
2024/03/21 05:10:50;;;;;;;11.90;8.20;;;;;;;;;;5020002;28;20064;-76
2024/03/21 05:13:15;;;;;;;9.20;5.90;;;;;;;;;;5030732;28;20045;-76
2024/03/21 05:15:50;;;;;;;6.75;4.25;;;;;;;;;;5025047;28;20079;-76
2024/03/21 05:18:16;;;;;;;9.82;5.00;;;;;;;;;;5016105;28;20129;-76
2024/03/21 05:20:42;;;;;;;6.45;4.35;;;;;;;;;;5007818;28;20452;-76
2024/03/21 05:23:07;;;;;;;5.22;3.47;;;;;;;;;;5034464;28;20104;-76
2024/03/21 05:25:36;;;;;;;4.82;3.38;;;;;;;;;;5022597;28;20033;-76
2024/03/21 05:28:02;;;;;;;5.47;3.80;;;;;;;;;;5036942;28;20053;-76
2024/03/21 05:30:28;;;;;;;4.72;3.00;;;;;;;;;;5015690;28;20429;-76
2024/03/21 05:32:54;;;;;;;3.42;2.80;;;;;;;;;;5011579;28;20056;-75
2024/03/21 05:35:19;;;;;;;4.93;3.50;;;;;;;;;;5012594;28;20064;-75
2024/03/21 05:37:45;;;;;;;4.03;2.92;;;;;;;;;;5025188;28;20056;-76
2024/03/21 05:40:12;;;;;;;5.68;3.70;;;;;;;;;;5006963;28;20583;-76
2024/03/21 05:42:37;;;;;;;6.93;3.42;;;;;;;;;;5027540;28;20056;-76
2024/03/21 05:45:03;;;;;;;4.13;3.03;;;;;;;;;;5021792;28;20084;-76
2024/03/21 05:47:28;;;;;;;5.60;3.67;;;;;;;;;;5017985;28;20057;-75
2024/03/21 05:49:54;;;;;;;6.72;4.85;;;;;;;;;;5021977;28;20060;-76
2024/03/21 05:52:19;;;;;;;6.85;4.97;;;;;;;;;;5008248;28;20527;-75
2024/03/21 05:54:48;;;;;;;5.63;4.60;;;;;;;;;;5027087;28;20071;-76
2024/03/21 05:57:14;;;;;;;7.03;4.57;;;;;;;;;;4992038;28;20511;-76
2024/03/21 05:59:39;;;;;;;8.75;5.20;;;;;;;;;;5024157;28;20056;-75
2024/03/21 06:02:05;;;;;;;6.90;4.70;;;;;;;;;;5020803;28;20045;-76
2024/03/21 06:04:30;;;;;;;7.85;5.30;;;;;;;;;;5018933;28;20041;-75
2024/03/21 06:06:56;;;;;;;6.60;4.60;;;;;;;;;;5008420;28;20045;-75
2024/03/21 06:09:23;;;;;;;7.40;5.00;;;;;;;;;;5019458;28;20053;-75
2024/03/21 06:11:49;;;;;;;9.53;4.63;;;;;;;;;;5016439;28;20057;-75
2024/03/21 06:14:14;;;;;;;8.68;5.38;;;;;;;;;;5025170;28;20052;-75
2024/03/21 06:16:40;;;;;;;9.93;5.13;;;;;;;;;;5031532;28;20045;-75
2024/03/21 06:19:05;;;;;;;9.70;5.30;;;;;;;;;;5031755;28;20508;-75
2024/03/21 06:21:31;;;;;;;6.53;4.95;;;;;;;;;;5023671;28;20663;-76
2024/03/21 06:23:56;;;;;;;7.57;4.65;;;;;;;;;;5047810;28;20060;-75
2024/03/21 06:26:22;;;;;;;7.80;4.32;;;;;;;;;;5026182;28;20060;-75
2024/03/21 06:28:47;;;;;;;7.85;4.95;;;;;;;;;;5028274;28;20060;-76
2024/03/21 06:31:13;;;;;;;8.60;6.00;;;;;;;;;;5023910;28;20049;-76
2024/03/21 06:33:38;;;;;;;10.75;5.38;;;;;;;;;;5017139;28;20105;-75
2024/03/21 06:36:04;;;;;;;6.32;3.20;;;;;;;;;;5014644;28;20223;-75
2024/03/21 06:38:30;;;;;;;5.32;2.38;;;;;;;;;;5021594;28;20045;-74
2024/03/21 06:40:55;;;;;;;5.82;2.28;;;;;;;;;;5037310;28;20378;-75
2024/03/21 06:43:20;;;;;;;5.57;2.60;;;;;;;;;;5022603;28;20689;-74
2024/03/21 06:45:58;;;;;;;5.28;2.10;;;;;;;;;;5026086;28;20834;-75
2024/03/21 06:48:24;;;;;;;3.80;2.25;;;;;;;;;;5026672;28;20068;-75
2024/03/21 06:50:50;;;;;;;6.30;2.03;;;;;;;;;;5023941;28;20049;-75
2024/03/21 06:53:16;;;;;;;7.78;2.22;;;;;;;;;;5024484;28;20468;-74
2024/03/21 06:55:41;;;;;;;4.47;1.90;;;;;;;;;;5025578;28;20047;-75
2024/03/21 06:58:07;;;;;;;8.02;1.90;;;;;;;;;;5010698;28;20053;-74
2024/03/21 07:00:32;;;;;;;5.28;1.80;;;;;;;;;;5029560;28;20056;-76
2024/03/21 07:02:58;;;;;;;4.97;1.90;;;;;;;;;;5024496;28;20049;-74
2024/03/21 07:05:24;;;;;;;5.50;1.83;;;;;;;;;;5036128;28;20068;-75
2024/03/21 07:07:50;;;;;;;5.38;1.73;;;;;;;;;;5029206;28;20219;-76
2024/03/21 07:10:15;;;;;;;4.88;1.30;;;;;;;;;;5019252;28;20081;-78
2024/03/21 07:12:41;;;;;;;6.13;2.13;;;;;;;;;;5020441;28;20656;-75
2024/03/21 07:15:07;;;;;;;8.70;1.48;;;;;;;;;;5031979;28;20047;-78
2024/03/21 07:17:32;;;;;;;6.70;1.42;;;;;;;;;;5035297;28;20135;-74
2024/03/21 07:19:58;;;;;;;5.72;1.40;;;;;;;;;;5029491;28;20049;-75
2024/03/21 07:22:23;;;;;;;6.60;1.48;;;;;;;;;;5027686;28;20068;-74
2024/03/21 07:24:49;;;;;;;12.73;2.65;;;;;;;;;;5003933;28;20049;-74
2024/03/21 07:27:15;;;;;;;6.78;1.65;;;;;;;;;;5033244;28;20056;-76
2024/03/21 07:29:41;;;;;;;6.43;2.00;;;;;;;;;;5033050;28;20148;-76
2024/03/21 07:32:07;;;;;;;41.67;5.53;;;;;;;;;;5026753;28;20095;-76
2024/03/21 07:34:33;;;;;;;8.30;1.67;;;;;;;;;;5029158;28;20064;-76
2024/03/21 07:36:59;;;;;;;3.72;1.00;;;;;;;;;;5015406;28;20057;-73
2024/03/21 07:39:24;;;;;;;5.40;1.58;;;;;;;;;;5022771;28;20408;-73
2024/03/21 07:41:50;;;;;;;6.10;1.73;;;;;;;;;;5030140;28;20601;-73
2024/03/21 07:44:15;;;;;;;5.72;0.98;;;;;;;;;;5023593;28;20057;-74
2024/03/21 07:46:41;;;;;;;5.78;1.40;;;;;;;;;;5009713;28;20060;-73
2024/03/21 07:49:08;;;;;;;7.13;1.63;;;;;;;;;;5021146;28;20091;-72
2024/03/21 07:51:33;;;;;;;5.68;1.30;;;;;;;;;;5032185;28;20056;-72
2024/03/21 07:53:59;;;;;;;9.75;1.58;;;;;;;;;;5029486;28;20080;-74
2024/03/21 07:56:31;;;;;;;6.30;1.23;;;;;;;;;;5024682;28;20080;-75
2024/03/21 07:58:56;;;;;;;6.88;1.30;;;;;;;;;;5029184;28;21145;-73
2024/03/21 08:01:22;;;;;;;4.05;1.10;;;;;;;;;;5027066;28;20041;-75
2024/03/21 08:03:55;;;;;;;8.70;1.20;;;;;;;;;;5021132;28;20756;-75
2024/03/21 08:06:20;;;;;;;5.63;1.23;;;;;;;;;;5027634;28;20054;-76
2024/03/21 08:08:46;;;;;;;8.18;1.30;;;;;;;;;;4997020;28;20059;-75
2024/03/21 08:11:18;;;;;;;2.65;1.10;;;;;;;;;;5026005;28;20130;-78
2024/03/21 08:13:43;;;;;;;4.30;0.95;;;;;;;;;;5020198;28;20049;-77
2024/03/21 08:16:09;;;;;;;20.88;2.35;;;;;;;;;;5021561;28;20106;-74
2024/03/21 08:18:41;;;;;;;4.80;1.20;;;;;;;;;;5022512;28;20045;-77
2024/03/21 08:21:06;;;;;;;8.18;1.45;;;;;;;;;;5026301;28;20126;-75
2024/03/21 08:23:32;;;;;;;3.75;1.10;;;;;;;;;;5021082;28;20136;-75
2024/03/21 08:26:04;;;;;;;73.30;8.77;;;;;;;;;;5022049;28;20057;-74
2024/03/21 08:28:30;;;;;;;8.65;2.00;;;;;;;;;;5040373;28;20065;-74
2024/03/21 08:30:55;;;;;;;6.47;1.42;;;;;;;;;;5028242;28;20137;-78
2024/03/21 08:33:28;;;;;;;32.67;5.18;;;;;;;;;;5015916;28;20045;-78
2024/03/21 08:35:53;;;;;;;9.18;1.65;;;;;;;;;;5025314;28;20053;-75
2024/03/21 08:38:19;;;;;;;7.43;1.58;;;;;;;;;;5025158;28;20056;-74
2024/03/21 08:40:52;;;;;;;6.43;1.50;;;;;;;;;;5010657;28;20061;-73
2024/03/21 08:43:17;;;;;;;9.88;1.63;;;;;;;;;;5022820;28;20056;-75
2024/03/21 08:45:43;;;;;;;5.82;1.38;;;;;;;;;;5024179;28;20061;-74
2024/03/21 09:31:50;;;;;;;0.50;0.50;;;;;;;;;;4991845;22;28792091;-75
2024/03/21 09:34:16;;;;;;;4.68;1.58;;;;;;;;;;6213702;23;20628;-74
2024/03/21 09:36:46;;;;;;;6.60;1.67;;;;;;;;;;6212115;23;20031;-73
2024/03/21 09:39:12;;;;;;;7.05;1.70;;;;;;;;;;6185795;23;20024;-76
2024/03/21 09:41:38;;;;;;;6.47;1.80;;;;;;;;;;6207342;23;20319;-74
2024/03/21 09:44:03;;;;;;;6.60;2.03;;;;;;;;;;6189719;23;20035;-77
2024/03/21 09:46:30;;;;;;;4.20;1.60;;;;;;;;;;6184013;23;20591;-75
2024/03/21 09:48:56;;;;;;;6.20;2.58;;;;;;;;;;6192698;23;20031;-74
2024/03/21 09:51:22;;;;;;;8.13;1.92;;;;;;;;;;6187720;23;20103;-77
2024/03/21 09:53:48;;;;;;;6.07;1.80;;;;;;;;;;6218007;23;20023;-76
2024/03/21 09:56:17;;;;;;;5.75;2.20;;;;;;;;;;6186645;23;20016;-76
2024/03/21 09:58:43;;;;;;;6.68;2.03;;;;;;;;;;6209425;23;20024;-77
2024/03/21 10:01:18;;;;;;;7.68;1.77;;;;;;;;;;6193905;23;20537;-76
2024/03/21 10:03:45;;;;;;;8.40;1.90;;;;;;;;;;6187693;23;20016;-76
2024/03/21 10:06:10;;;;;;;6.07;1.80;;;;;;;;;;6219654;23;20027;-77
2024/03/21 10:08:35;;;;;;;5.22;2.03;;;;;;;;;;6210272;23;20524;-79
2024/03/21 10:11:01;;;;;;;7.00;1.92;;;;;;;;;;6213936;23;20024;-77
2024/03/21 10:13:26;;;;;;;5.63;2.25;;;;;;;;;;6220347;23;20099;-77
2024/03/21 10:15:52;;;;;;;7.50;2.20;;;;;;;;;;6212686;23;20016;-76
2024/03/21 10:18:18;;;;;;;5.55;2.13;;;;;;;;;;6222586;23;20020;-77
2024/03/21 10:20:43;;;;;;;6.65;1.80;;;;;;;;;;6186306;23;20028;-77
2024/03/21 10:23:15;;;;;;;6.47;1.92;;;;;;;;;;6210064;23;20024;-78
2024/03/21 10:25:40;;;;;;;9.52;2.45;;;;;;;;;;6205911;23;20327;-79
2024/03/21 10:28:10;;;;;;;5.15;1.98;;;;;;;;;;6187233;23;20020;-78
2024/03/21 10:30:37;;;;;;;10.15;2.53;;;;;;;;;;6187918;23;20027;-77
2024/03/21 10:33:02;;;;;;;10.88;3.45;;;;;;;;;;6180673;23;20070;-79
2024/03/21 10:35:31;;;;;;;7.43;2.65;;;;;;;;;;6207821;23;20024;-78
2024/03/21 10:37:57;;;;;;;5.00;2.28;;;;;;;;;;6204275;23;20713;-75
2024/03/21 10:40:22;;;;;;;8.32;2.20;;;;;;;;;;6211552;23;20091;-75
2024/03/21 10:42:51;;;;;;;6.40;2.20;;;;;;;;;;6212596;23;20020;-74
2024/03/21 10:45:17;;;;;;;6.63;2.40;;;;;;;;;;6205442;23;20028;-74
2024/03/21 10:47:46;;;;;;;8.00;2.33;;;;;;;;;;6188262;23;20024;-74
2024/03/21 10:50:18;;;;;;;6.65;2.47;;;;;;;;;;6176807;23;20128;-74
2024/03/21 10:52:51;;;;;;;7.53;2.60;;;;;;;;;;6183844;23;20020;-75
2024/03/21 10:55:17;;;;;;;7.10;2.28;;;;;;;;;;6182611;23;20494;-75
2024/03/21 10:57:45;;;;;;;6.25;2.10;;;;;;;;;;6212499;23;20020;-75
2024/03/21 11:00:13;;;;;;;9.90;2.63;;;;;;;;;;6213694;23;20028;-74
2024/03/21 11:02:39;;;;;;;8.73;2.47;;;;;;;;;;6180407;23;20024;-75
2024/03/21 11:05:11;;;;;;;4.22;2.40;;;;;;;;;;6206976;23;20035;-75
2024/03/21 11:07:37;;;;;;;7.10;2.28;;;;;;;;;;6178900;23;20035;-74
2024/03/21 11:10:03;;;;;;;5.78;2.20;;;;;;;;;;6188170;23;20020;-74
2024/03/21 11:12:32;;;;;;;5.43;1.95;;;;;;;;;;6206106;23;20521;-75
2024/03/21 11:14:57;;;;;;;7.88;2.25;;;;;;;;;;6212737;23;20039;-74
2024/03/21 11:17:24;;;;;;;6.55;1.98;;;;;;;;;;6183342;23;20017;-75
2024/03/21 11:19:50;;;;;;;7.70;2.50;;;;;;;;;;6174740;23;20021;-74
2024/03/21 11:22:15;;;;;;;6.88;2.00;;;;;;;;;;6212713;23;20020;-74
2024/03/21 11:24:41;;;;;;;7.65;2.40;;;;;;;;;;6181644;23;20027;-74
2024/03/21 11:27:15;;;;;;;7.20;2.30;;;;;;;;;;6213028;23;20031;-76
2024/03/21 11:29:41;;;;;;;9.35;2.20;;;;;;;;;;6207121;23;20016;-74
2024/03/21 11:32:07;;;;;;;6.53;2.28;;;;;;;;;;6207593;23;20524;-75
2024/03/21 11:34:32;;;;;;;9.18;2.47;;;;;;;;;;6183926;23;20082;-74
2024/03/21 11:36:58;;;;;;;6.88;2.30;;;;;;;;;;6179979;23;20032;-74
2024/03/21 11:39:23;;;;;;;9.73;2.30;;;;;;;;;;6212626;23;20023;-74
2024/03/21 11:41:49;;;;;;;5.80;2.35;;;;;;;;;;6204354;23;20024;-74
2024/03/21 11:44:14;;;;;;;6.35;2.35;;;;;;;;;;6213312;23;20028;-75
2024/03/21 11:46:40;;;;;;;7.63;3.08;;;;;;;;;;6207780;23;20031;-74
2024/03/21 11:49:06;;;;;;;8.15;2.42;;;;;;;;;;6174861;23;20779;-75
2024/03/21 11:51:32;;;;;;;7.75;2.60;;;;;;;;;;6212260;23;20660;-74
2024/03/21 11:54:05;;;;;;;7.20;2.17;;;;;;;;;;6204887;23;20509;-75
2024/03/21 11:56:30;;;;;;;9.05;2.20;;;;;;;;;;6213069;23;20024;-74
2024/03/21 11:58:56;;;;;;;8.50;2.75;;;;;;;;;;6206448;23;20020;-76
2024/03/21 12:01:21;;;;;;;7.60;2.50;;;;;;;;;;6205870;23;20020;-74
2024/03/21 12:03:47;;;;;;;15.23;2.60;;;;;;;;;;6188956;23;20416;-76
2024/03/21 12:06:12;;;;;;;6.22;2.65;;;;;;;;;;6204645;23;20123;-75
2024/03/21 12:08:38;;;;;;;7.30;2.58;;;;;;;;;;6187697;23;20016;-75
2024/03/21 12:11:11;;;;;;;6.28;2.03;;;;;;;;;;6206213;23;20059;-74
2024/03/21 12:13:37;;;;;;;6.03;1.90;;;;;;;;;;6208034;23;20020;-75
2024/03/21 12:16:03;;;;;;;8.82;2.30;;;;;;;;;;6182821;23;20020;-75
2024/03/21 12:18:31;;;;;;;7.43;2.38;;;;;;;;;;6179670;23;20024;-74
2024/03/21 12:20:57;;;;;;;5.35;2.10;;;;;;;;;;6210939;23;20028;-74
2024/03/21 12:23:22;;;;;;;7.07;2.40;;;;;;;;;;6204420;23;20024;-74
2024/03/21 12:25:48;;;;;;;5.25;1.90;;;;;;;;;;6212375;23;20059;-75
2024/03/21 12:28:13;;;;;;;9.18;2.60;;;;;;;;;;6199584;23;21287;-74
2024/03/21 12:30:38;;;;;;;6.35;2.00;;;;;;;;;;6208584;23;20024;-74
2024/03/21 12:33:09;;;;;;;5.90;2.00;;;;;;;;;;6211215;23;20109;-74
2024/03/21 12:35:34;;;;;;;10.00;2.00;;;;;;;;;;6204746;23;20020;-74
2024/03/21 12:38:00;;;;;;;7.03;2.05;;;;;;;;;;6212213;23;20038;-74
2024/03/21 12:40:25;;;;;;;12.30;2.45;;;;;;;;;;6202206;23;20486;-74
2024/03/21 12:42:50;;;;;;;10.90;2.33;;;;;;;;;;6186368;23;20701;-74
2024/03/21 12:45:16;;;;;;;8.10;2.20;;;;;;;;;;6215048;23;20463;-73
2024/03/21 12:47:41;;;;;;;6.88;2.03;;;;;;;;;;6209079;23;20396;-74
2024/03/21 12:50:07;;;;;;;4.47;1.65;;;;;;;;;;6215854;23;20024;-73
2024/03/21 12:52:32;;;;;;;5.88;2.00;;;;;;;;;;6204367;23;20347;-74
2024/03/21 12:54:58;;;;;;;5.63;2.38;;;;;;;;;;6207704;23;20030;-75
2024/03/21 12:57:24;;;;;;;9.15;2.50;;;;;;;;;;6201790;23;20020;-76
2024/03/21 12:59:49;;;;;;;9.63;2.58;;;;;;;;;;6216811;23;20083;-75
2024/03/21 13:02:15;;;;;;;9.85;2.33;;;;;;;;;;6213960;23;20020;-79
2024/03/21 13:04:41;;;;;;;7.40;2.60;;;;;;;;;;6205995;23;20024;-76
2024/03/21 13:07:06;;;;;;;7.60;2.35;;;;;;;;;;6188392;23;20027;-78
2024/03/21 13:09:33;;;;;;;383.13;225.35;;;;;;;;;;6203594;23;20426;-77
2024/03/21 13:11:58;;;;;;;7.20;3.55;;;;;;;;;;6211132;23;20035;-79
2024/03/21 13:14:24;;;;;;;10.27;2.65;;;;;;;;;;6213449;23;20024;-82
2024/03/21 13:16:49;;;;;;;7.32;2.83;;;;;;;;;;6182074;23;20058;-78
2024/03/21 13:19:14;;;;;;;8.82;2.90;;;;;;;;;;6214304;23;20020;-83
2024/03/21 13:21:40;;;;;;;10.20;3.00;;;;;;;;;;6203981;23;20020;-76
2024/03/21 13:24:05;;;;;;;5.55;2.92;;;;;;;;;;6207015;23;20410;-83
2024/03/21 13:26:31;;;;;;;6.78;3.10;;;;;;;;;;6206899;23;20031;-84
2024/03/21 13:28:56;;;;;;;8.73;2.95;;;;;;;;;;6212888;23;20024;-85
2024/03/21 13:31:22;;;;;;;7.55;3.30;;;;;;;;;;6213551;23;20059;-84
2024/03/21 13:33:47;;;;;;;11.70;3.78;;;;;;;;;;6206731;23;20346;-86
2024/03/21 13:36:13;;;;;;;4.85;2.92;;;;;;;;;;6208626;23;20076;-85
2024/03/21 13:38:38;;;;;;;8.98;3.35;;;;;;;;;;6204418;23;20024;-83
2024/03/21 13:41:03;;;;;;;8.48;3.80;;;;;;;;;;6213463;23;20466;-83
2024/03/21 13:43:29;;;;;;;6.75;3.30;;;;;;;;;;6213439;23;20537;-83
2024/03/21 13:45:54;;;;;;;7.85;3.80;;;;;;;;;;6206942;23;20028;-85
2024/03/21 13:48:20;;;;;;;6.85;3.35;;;;;;;;;;6214073;23;20004;-83
2024/03/21 13:50:46;;;;;;;9.07;3.80;;;;;;;;;;6204078;23;20297;-79
2024/03/21 13:53:12;;;;;;;9.73;3.83;;;;;;;;;;6212189;23;20020;-84
2024/03/21 13:55:37;;;;;;;8.93;4.10;;;;;;;;;;6184827;23;20021;-78
2024/03/21 13:58:02;;;;;;;9.00;4.13;;;;;;;;;;6214773;23;20026;-83
2024/03/21 14:00:31;;;;;;;10.38;4.40;;;;;;;;;;6216722;23;20316;-85
2024/03/21 14:02:56;;;;;;;;;;;;;;;;;;6205466;23;20074;-84
2024/03/21 14:05:25;;;;;;;8.95;4.28;;;;;;;;;;6186528;23;19919;-85
2024/03/21 14:07:51;;;;;;;9.85;5.57;;;;;;;;;;6183949;23;20331;-72
2024/03/21 14:10:17;;;;;;;9.85;5.32;;;;;;;;;;6214208;23;20051;-72
2024/03/21 14:12:42;;;;;;;10.30;6.10;;;;;;;;;;6205869;23;20024;-72
2024/03/21 14:15:08;;;;;;;11.50;6.28;;;;;;;;;;6212317;23;20082;-72
2024/03/21 14:17:34;;;;;;;8.32;6.38;;;;;;;;;;6207591;23;20055;-71
2024/03/21 14:20:07;;;;;;;13.57;5.85;;;;;;;;;;6201379;23;20034;-73
2024/03/21 14:22:34;;;;;;;10.52;6.68;;;;;;;;;;6211436;23;20559;-72
2024/03/21 14:24:59;;;;;;;8.60;6.28;;;;;;;;;;6204899;23;20028;-72
2024/03/21 14:27:25;;;;;;;8.77;6.38;;;;;;;;;;6213146;23;20099;-72
2024/03/21 14:29:51;;;;;;;12.35;6.65;;;;;;;;;;6212535;23;20016;-73
2024/03/21 14:32:17;;;;;;;12.63;7.40;;;;;;;;;;6198524;23;20016;-72
2024/03/21 14:34:43;;;;;;;11.52;8.00;;;;;;;;;;6209170;23;20024;-72
2024/03/21 14:37:08;;;;;;;9.75;8.00;;;;;;;;;;6180733;23;20047;-72
2024/03/21 14:39:33;;;;;;;14.43;8.75;;;;;;;;;;6213504;23;20031;-72
2024/03/21 14:41:59;;;;;;;9.68;8.32;;;;;;;;;;6204149;23;20031;-72
2024/03/21 14:44:25;;;;;;;12.45;9.23;;;;;;;;;;6210725;23;20643;-73
2024/03/21 14:46:51;;;;;;;10.90;8.98;;;;;;;;;;6181454;23;20058;-72
2024/03/21 14:49:22;;;;;;;14.18;9.82;;;;;;;;;;6205972;23;20025;-72
2024/03/21 14:51:48;;;;;;;10.98;9.82;;;;;;;;;;6212454;23;20035;-72
2024/03/21 14:54:17;;;;;;;12.38;10.70;;;;;;;;;;6205266;23;20051;-73
2024/03/21 14:56:42;;;;;;;14.98;11.23;;;;;;;;;;6211613;23;20024;-72
2024/03/21 14:59:07;;;;;;;12.38;10.98;;;;;;;;;;6202134;23;20035;-72
2024/03/21 15:01:33;;;;;;;14.80;10.55;;;;;;;;;;6208254;23;20020;-72
2024/03/21 15:03:59;;;;;;;15.65;10.38;;;;;;;;;;6211931;23;20130;-72
2024/03/21 15:06:24;;;;;;;10.45;8.13;;;;;;;;;;6179318;23;20028;-72
2024/03/21 15:08:51;;;;;;;9.68;5.85;;;;;;;;;;6211515;23;20051;-73
2024/03/21 15:11:16;;;;;;;10.52;7.55;;;;;;;;;;6205196;23;20031;-73
2024/03/21 15:13:41;;;;;;;8.52;7.30;;;;;;;;;;6207114;23;20099;-73